createdAt,value
2023-03-05T00:00:02.119Z,0.40
2023-03-05T00:02:36.635Z,0.34
2023-03-05T00:05:19.946Z,0.28
2023-03-05T00:07:54.078Z,0.21
2023-03-05T00:10:27.055Z,0.21
2023-03-05T00:13:00.243Z,0.18
2023-03-05T00:15:33.344Z,0.18
2023-03-05T00:18:06.460Z,0.18
2023-03-05T00:20:39.084Z,0.21
2023-03-05T00:23:11.745Z,0.20
2023-03-05T00:25:46.091Z,0.17
2023-03-05T00:28:18.607Z,0.13
2023-03-05T00:30:52.607Z,0.05
2023-03-05T00:33:25.252Z,-0.05
2023-03-05T00:35:58.844Z,-0.11
2023-03-05T00:38:31.171Z,-0.16
2023-03-05T00:41:03.701Z,-0.23
2023-03-05T00:43:36.817Z,-0.30
2023-03-05T00:46:09.905Z,-0.43
2023-03-05T00:48:42.307Z,-0.44
2023-03-05T00:51:15.168Z,-0.42
2023-03-05T00:53:47.798Z,-0.43
2023-03-05T00:56:20.240Z,-0.43
2023-03-05T00:58:53.892Z,-0.48
2023-03-05T01:01:27.737Z,-0.47
2023-03-05T01:04:01.386Z,-0.47
2023-03-05T01:06:34.065Z,-0.50
2023-03-05T01:09:07.825Z,-0.55
2023-03-05T01:11:40.612Z,-0.55
2023-03-05T01:14:13.348Z,-0.52
2023-03-05T01:16:45.885Z,-0.51
2023-03-05T01:19:18.650Z,-0.53
2023-03-05T01:21:51.052Z,-0.62
2023-03-05T01:24:25.491Z,-0.68
2023-03-05T01:26:57.898Z,-0.66
2023-03-05T01:29:30.252Z,-0.68
2023-03-05T01:32:03.899Z,-0.66
2023-03-05T01:34:38.692Z,-0.68
2023-03-05T01:37:12.860Z,-0.70
2023-03-05T01:39:45.335Z,-0.73
2023-03-05T01:42:19.552Z,-0.80
2023-03-05T01:45:10.188Z,-0.81
2023-03-05T01:47:42.585Z,-0.81
2023-03-05T01:50:18.409Z,-0.86
2023-03-05T01:52:55.738Z,-0.88
2023-03-05T01:55:29.790Z,-0.90
2023-03-05T01:58:11.594Z,-0.95
2023-03-05T02:00:49.975Z,-0.95
2023-03-05T02:03:22.276Z,-0.97
2023-03-05T02:05:54.839Z,-0.95
2023-03-05T02:08:28.989Z,-0.95
2023-03-05T02:11:02.866Z,-0.97
2023-03-05T02:13:37.902Z,-1.07
2023-03-05T02:16:10.797Z,-1.13
2023-03-05T02:18:44.108Z,-1.14
2023-03-05T02:21:16.731Z,-1.22
2023-03-05T02:23:49.272Z,-1.24
2023-03-05T02:26:21.695Z,-1.21
2023-03-05T02:28:58.106Z,-1.19
2023-03-05T02:31:31.356Z,-1.17
2023-03-05T02:34:05.483Z,-1.12
2023-03-05T02:36:38.800Z,-1.08
2023-03-05T02:39:11.488Z,-1.02
2023-03-05T02:41:44.055Z,-0.92
2023-03-05T02:44:16.840Z,-0.87
2023-03-05T02:46:49.444Z,-0.89
2023-03-05T02:49:21.999Z,-0.91
2023-03-05T02:51:54.265Z,-0.87
2023-03-05T02:54:27.387Z,-0.81
2023-03-05T02:57:00.283Z,-0.80
2023-03-05T02:59:32.839Z,-0.79
2023-03-05T03:02:05.649Z,-0.81
2023-03-05T03:04:38.847Z,-0.81
2023-03-05T03:07:12.518Z,-0.77
2023-03-05T03:09:46.112Z,-0.78
2023-03-05T03:12:19.377Z,-0.84
2023-03-05T03:14:51.793Z,-0.84
2023-03-05T03:17:24.863Z,-0.79
2023-03-05T03:19:57.338Z,-0.79
2023-03-05T03:22:29.819Z,-0.79
2023-03-05T03:25:02.600Z,-0.75
2023-03-05T03:27:35.182Z,-0.75
2023-03-05T03:30:09.072Z,-0.78
2023-03-05T03:32:41.975Z,-0.82
2023-03-05T03:35:14.529Z,-0.80
2023-03-05T03:37:46.821Z,-0.79
2023-03-05T03:40:20.042Z,-0.78
2023-03-05T03:42:56.324Z,-0.78
2023-03-05T03:45:29.086Z,-0.76
2023-03-05T03:48:01.793Z,-0.70
2023-03-05T03:50:34.344Z,-0.67
2023-03-05T03:53:06.930Z,-0.59
2023-03-05T03:55:42.697Z,-0.53
2023-03-05T03:58:15.608Z,-0.58
2023-03-05T04:00:48.184Z,-0.60
2023-03-05T04:03:21.285Z,-0.59
2023-03-05T04:05:54.168Z,-0.63
2023-03-05T04:08:27.142Z,-0.67
2023-03-05T04:11:02.432Z,-0.61
2023-03-05T04:13:35.151Z,-0.64
2023-03-05T04:16:20.390Z,-0.69
2023-03-05T04:18:52.062Z,-0.65
2023-03-05T04:21:24.429Z,-0.57
2023-03-05T04:23:56.822Z,-0.54
2023-03-05T04:26:30.327Z,-0.57
2023-03-05T04:29:02.708Z,-0.60
2023-03-05T04:31:35.061Z,-0.60
2023-03-05T04:34:08.129Z,-0.61
2023-03-05T04:36:41.390Z,-0.63
2023-03-05T04:39:14.469Z,-0.64
2023-03-05T04:41:49.179Z,-0.62
2023-03-05T04:44:23.472Z,-0.58
2023-03-05T04:46:55.994Z,-0.53
2023-03-05T04:49:28.482Z,-0.50
2023-03-05T04:52:00.930Z,-0.51
2023-03-05T04:54:33.558Z,-0.54
2023-03-05T04:57:06.240Z,-0.57
2023-03-05T04:59:40.208Z,-0.55
2023-03-05T05:02:13.535Z,-0.48
2023-03-05T05:04:46.590Z,-0.40
2023-03-05T05:07:19.165Z,-0.33
2023-03-05T05:09:52.669Z,-0.32
2023-03-05T05:12:25.166Z,-0.39
2023-03-05T05:15:00.306Z,-0.43
2023-03-05T05:17:34.272Z,-0.40
2023-03-05T05:20:08.433Z,-0.39
2023-03-05T05:22:43.047Z,-0.28
2023-03-05T05:25:15.512Z,-0.24
2023-03-05T05:27:48.718Z,-0.21
2023-03-05T05:30:21.357Z,-0.31
2023-03-05T05:32:53.824Z,-0.33
2023-03-05T05:35:26.361Z,-0.30
2023-03-05T05:37:59.012Z,-0.32
2023-03-05T05:40:31.455Z,-0.36
2023-03-05T05:43:04.163Z,-0.38
2023-03-05T05:45:39.131Z,-0.35
2023-03-05T05:48:11.804Z,-0.30
2023-03-05T05:50:45.352Z,-0.13
2023-03-05T05:53:18.048Z,-0.13
2023-03-05T05:55:51.140Z,0.05
2023-03-05T05:58:24.126Z,0.27
2023-03-05T06:00:57.189Z,0.42
2023-03-05T06:03:29.842Z,0.53
2023-03-05T06:06:02.540Z,0.55
2023-03-05T06:08:36.148Z,0.56
2023-03-05T06:11:08.987Z,0.65
2023-03-05T06:13:42.537Z,0.63
2023-03-05T06:16:18.641Z,0.65
2023-03-05T06:18:51.891Z,1.03
2023-03-05T06:21:24.272Z,1.81
2023-03-05T06:23:58.896Z,2.39
2023-03-05T06:26:30.650Z,2.65
2023-03-05T06:29:02.824Z,2.74
2023-03-05T06:31:37.275Z,2.77
2023-03-05T06:34:09.294Z,2.98
2023-03-05T06:36:43.294Z,3.10
2023-03-05T06:39:16.295Z,3.14
2023-03-05T06:41:52.358Z,3.11
2023-03-05T06:44:25.884Z,3.09
2023-03-05T06:46:58.383Z,3.60
2023-03-05T06:49:31.480Z,3.97
2023-03-05T06:52:04.732Z,4.39
2023-03-05T06:54:37.020Z,4.82
2023-03-05T06:57:11.337Z,5.39
2023-03-05T06:59:43.783Z,6.01
2023-03-05T07:02:16.153Z,6.50
2023-03-05T07:04:49.006Z,6.60
2023-03-05T07:07:22.213Z,6.35
2023-03-05T07:09:54.636Z,5.83
2023-03-05T07:12:27.079Z,5.41
2023-03-05T07:14:59.456Z,5.41
2023-03-05T07:17:31.899Z,5.81
2023-03-05T07:20:06.457Z,6.30
2023-03-05T07:22:39.843Z,6.60
2023-03-05T07:25:12.657Z,6.68
2023-03-05T07:27:45.263Z,6.59
2023-03-05T07:30:17.875Z,6.00
2023-03-05T07:32:51.637Z,5.65
2023-03-05T07:35:24.822Z,5.30
2023-03-05T07:38:08.692Z,5.45
2023-03-05T07:40:41.118Z,6.06
2023-03-05T07:43:14.829Z,6.40
2023-03-05T07:45:49.020Z,6.33
2023-03-05T07:48:22.145Z,5.89
2023-03-05T07:51:04.443Z,5.66
2023-03-05T07:53:36.951Z,5.21
2023-03-05T07:56:09.568Z,5.11
2023-03-05T07:58:42.066Z,5.70
2023-03-05T08:01:15.057Z,6.37
2023-03-05T08:03:47.581Z,7.02
2023-03-05T08:06:20.838Z,7.10
2023-03-05T08:08:53.536Z,7.31
2023-03-05T08:11:26.785Z,7.96
2023-03-05T08:14:01.273Z,8.45
2023-03-05T08:16:33.786Z,8.82
2023-03-05T08:19:07.060Z,9.29
2023-03-05T08:21:40.708Z,9.47
2023-03-05T08:24:13.264Z,9.26
2023-03-05T08:26:46.024Z,9.19
2023-03-05T08:29:18.784Z,9.12
2023-03-05T08:31:53.757Z,9.33
2023-03-05T08:34:26.604Z,9.81
2023-03-05T08:36:59.240Z,9.78
2023-03-05T08:39:31.844Z,9.03
2023-03-05T08:42:08.020Z,8.55
2023-03-05T08:44:40.707Z,8.14
2023-03-05T08:47:13.658Z,8.35
2023-03-05T08:49:46.096Z,8.91
2023-03-05T08:52:18.381Z,8.89
2023-03-05T08:54:50.865Z,8.55
2023-03-05T08:57:23.483Z,8.35
2023-03-05T08:59:56.141Z,8.36
2023-03-05T09:02:28.878Z,8.71
2023-03-05T09:05:01.478Z,9.14
2023-03-05T09:07:34.270Z,9.39
2023-03-05T09:10:08.054Z,9.51
2023-03-05T09:12:41.828Z,9.59
2023-03-05T09:15:16.350Z,9.71
2023-03-05T09:17:48.814Z,9.40
2023-03-05T09:20:21.420Z,8.47
2023-03-05T09:22:54.750Z,8.00
2023-03-05T09:25:28.205Z,7.79
2023-03-05T09:28:00.863Z,7.73
2023-03-05T09:30:35.201Z,7.83
2023-03-05T09:33:07.814Z,7.91
2023-03-05T09:35:41.528Z,7.57
2023-03-05T09:38:24.933Z,7.58
2023-03-05T09:41:10.509Z,7.79
2023-03-05T09:44:05.532Z,8.41
2023-03-05T09:46:57.668Z,9.17
2023-03-05T09:49:54.730Z,9.25
2023-03-05T09:52:43.547Z,9.07
2023-03-05T09:55:23.634Z,8.92
2023-03-05T09:58:01.241Z,9.24
2023-03-05T10:00:40.380Z,9.31
2023-03-05T10:03:35.793Z,9.31
2023-03-05T10:06:46.754Z,9.69
2023-03-05T10:09:42.275Z,10.26
2023-03-05T10:12:43.963Z,10.66
2023-03-05T10:15:39.713Z,10.81
2023-03-05T10:18:42.875Z,10.85
2023-03-05T10:21:21.128Z,10.77
2023-03-05T10:24:13.052Z,10.64
2023-03-05T10:27:09.792Z,10.55
2023-03-05T10:30:14.201Z,10.91
2023-03-05T10:32:55.967Z,11.32
2023-03-05T10:35:51.120Z,11.82
2023-03-05T10:38:28.814Z,11.83
2023-03-05T10:41:21.977Z,11.20
2023-03-05T10:46:58.812Z,10.60
2023-03-05T10:49:35.522Z,10.45
2023-03-05T10:52:11.850Z,10.18
2023-03-05T10:54:44.405Z,10.14
2023-03-05T10:57:21.391Z,10.17
2023-03-05T11:00:04.120Z,9.67
2023-03-05T11:02:38.868Z,9.28
2023-03-05T11:05:41.643Z,9.66
2023-03-05T11:08:35.758Z,9.83
2023-03-05T11:11:20.331Z,9.28
2023-03-05T11:14:06.326Z,8.82
2023-03-05T11:16:51.105Z,8.67
2023-03-05T11:19:34.477Z,8.04
2023-03-05T11:22:24.995Z,7.53
2023-03-05T11:25:19.132Z,7.29
2023-03-05T11:27:55.473Z,7.21
2023-03-05T11:30:37.465Z,6.95
2023-03-05T11:33:41.076Z,6.60
2023-03-05T11:36:35.238Z,6.44
2023-03-05T11:39:11.931Z,6.43
2023-03-05T11:42:00.821Z,6.25
2023-03-05T11:44:48.850Z,6.09
2023-03-05T11:47:34.995Z,6.10
2023-03-05T11:50:15.769Z,6.17
2023-03-05T11:53:10.149Z,6.36
2023-03-05T11:56:13.085Z,6.41
2023-03-05T11:59:02.478Z,6.18
2023-03-05T12:01:39.241Z,5.88
2023-03-05T12:04:12.404Z,5.86
2023-03-05T12:07:04.099Z,5.59
2023-03-05T12:09:44.197Z,5.42
2023-03-05T12:12:39.590Z,5.33
2023-03-05T12:15:59.307Z,5.34
2023-03-05T12:18:57.680Z,5.29
2023-03-05T12:21:36.964Z,5.29
2023-03-05T12:24:32.718Z,5.40
2023-03-05T12:27:09.774Z,5.45
2023-03-05T12:29:52.910Z,5.29
2023-03-05T12:32:34.156Z,5.05
2023-03-05T12:35:30.093Z,4.83
2023-03-05T12:38:24.417Z,4.77
2023-03-05T12:40:39.373Z,4.76
2023-03-05T12:43:33.357Z,4.78
2023-03-05T12:46:28.764Z,4.82
2023-03-05T12:49:01.927Z,4.62
2023-03-05T12:51:40.280Z,4.53
2023-03-05T12:54:47.392Z,4.48
2023-03-05T12:57:23.984Z,4.48
2023-03-05T13:00:13.401Z,4.55
2023-03-05T13:02:59.328Z,4.59
2023-03-05T13:05:53.979Z,4.59
2023-03-05T13:08:32.412Z,4.62
2023-03-05T13:11:19.789Z,4.62
2023-03-05T13:13:52.513Z,4.63
2023-03-05T13:16:30.718Z,4.67
2023-03-05T13:19:03.478Z,4.72
2023-03-05T13:21:36.529Z,4.71
2023-03-05T13:24:20.710Z,4.69
2023-03-05T13:26:53.023Z,4.70
2023-03-05T13:29:29.019Z,4.69
2023-03-05T13:32:29.478Z,4.63
2023-03-05T13:35:02.294Z,4.56
2023-03-05T13:37:36.621Z,4.52
2023-03-05T13:40:25.605Z,4.47
2023-03-05T13:42:59.532Z,4.37
2023-03-05T13:45:33.092Z,4.29
2023-03-05T13:48:07.218Z,4.26
2023-03-05T13:51:01.395Z,4.24
2023-03-05T13:53:34.872Z,4.19
2023-03-05T13:56:09.605Z,4.09
2023-03-05T13:59:19.843Z,4.08
2023-03-05T14:01:53.541Z,4.09
2023-03-05T14:04:31.504Z,4.03
2023-03-05T14:07:25.009Z,3.91
2023-03-05T14:09:57.444Z,3.87
2023-03-05T14:12:42.666Z,3.87
2023-03-05T14:15:25.308Z,3.92
2023-03-05T14:18:18.071Z,3.96
2023-03-05T14:21:12.449Z,3.93
2023-03-05T14:24:16.694Z,3.96
2023-03-05T14:26:58.049Z,3.91
2023-03-05T14:29:30.325Z,3.88
2023-03-05T14:32:07.074Z,3.90
2023-03-05T14:34:43.591Z,3.91
2023-03-05T14:37:29.463Z,3.93
2023-03-05T14:40:14.195Z,3.89
2023-03-05T14:42:56.702Z,3.88
2023-03-05T14:45:32.448Z,3.86
2023-03-05T14:48:06.958Z,3.82
2023-03-05T14:50:50.534Z,3.80
2023-03-05T14:53:28.220Z,3.79
2023-03-05T14:56:02.339Z,3.82
2023-03-05T14:58:35.731Z,3.85
2023-03-05T15:01:08.748Z,3.83
2023-03-05T15:03:41.728Z,3.78
2023-03-05T15:06:34.418Z,3.75
2023-03-05T15:09:07.462Z,3.78
2023-03-05T15:11:40.323Z,3.80
2023-03-05T15:14:13.675Z,3.80
2023-03-05T15:16:47.835Z,3.79
2023-03-05T15:19:20.766Z,3.74
2023-03-05T15:21:53.598Z,3.69
2023-03-05T15:24:26.565Z,3.69
2023-03-05T15:26:59.055Z,3.67
2023-03-05T15:29:31.732Z,3.65
2023-03-05T15:32:05.566Z,3.64
2023-03-05T15:34:38.008Z,3.62
2023-03-05T15:37:10.555Z,3.60
2023-03-05T15:39:43.084Z,3.57
2023-03-05T15:42:16.122Z,3.56
2023-03-05T15:44:49.670Z,3.53
2023-03-05T15:47:21.976Z,3.50
2023-03-05T15:49:54.528Z,3.48
2023-03-05T15:52:27.094Z,3.47
2023-03-05T15:55:01.843Z,3.46
2023-03-05T15:57:37.627Z,3.45
2023-03-05T16:00:11.801Z,3.45
2023-03-05T16:02:44.730Z,3.41
2023-03-05T16:05:17.276Z,3.37
2023-03-05T16:07:52.216Z,3.32
2023-03-05T16:10:27.222Z,3.29
2023-03-05T16:13:05.230Z,3.21
2023-03-05T16:15:39.509Z,3.15
2023-03-05T16:18:15.520Z,3.11
2023-03-05T16:20:48.714Z,3.04
2023-03-05T16:23:22.401Z,2.97
2023-03-05T16:25:58.612Z,2.98
2023-03-05T16:28:30.717Z,3.01
2023-03-05T16:31:03.539Z,3.03
2023-03-05T16:33:37.262Z,3.02
2023-03-05T16:36:21.073Z,3.04
2023-03-05T16:38:55.940Z,3.03
2023-03-05T16:41:29.399Z,3.01
2023-03-05T16:44:02.008Z,2.96
2023-03-05T16:46:35.572Z,2.93
2023-03-05T16:49:08.797Z,2.92
2023-03-05T16:51:42.165Z,2.88
2023-03-05T16:54:15.140Z,2.83
2023-03-05T16:56:47.703Z,2.83
2023-03-05T16:59:20.048Z,2.79
2023-03-05T17:01:52.532Z,2.77
2023-03-05T17:04:24.909Z,2.76
2023-03-05T17:06:57.936Z,2.76
2023-03-05T17:09:31.818Z,2.76
2023-03-05T17:12:05.535Z,2.81
2023-03-05T17:14:38.783Z,2.78
2023-03-05T17:17:11.901Z,2.75
2023-03-05T17:19:45.008Z,2.74
2023-03-05T17:22:17.415Z,2.78
2023-03-05T17:24:49.773Z,2.77
2023-03-05T17:27:22.816Z,2.74
2023-03-05T17:29:55.697Z,2.80
2023-03-05T17:32:29.061Z,2.74
2023-03-05T17:35:03.219Z,2.70
2023-03-05T17:37:35.880Z,2.63
2023-03-05T17:40:10.903Z,2.65
2023-03-05T17:42:43.352Z,2.65
2023-03-05T17:45:16.402Z,2.71
2023-03-05T17:47:49.158Z,2.76
2023-03-05T17:50:21.771Z,2.79
2023-03-05T17:52:54.339Z,2.81
2023-03-05T17:55:27.481Z,2.80
2023-03-05T17:57:59.960Z,2.82
2023-03-05T18:00:32.638Z,2.76
2023-03-05T18:03:05.541Z,2.70
2023-03-05T18:05:38.375Z,2.68
2023-03-05T18:08:11.511Z,2.66
2023-03-05T18:10:44.817Z,2.69
2023-03-05T18:13:17.396Z,2.71
2023-03-05T18:15:50.198Z,2.73
2023-03-05T18:18:22.920Z,2.68
2023-03-05T18:20:55.295Z,2.67
2023-03-05T18:26:12.015Z,2.61
2023-03-05T18:28:44.780Z,2.62
2023-03-05T18:31:18.405Z,2.60
2023-03-05T18:33:52.616Z,2.55
2023-03-05T18:36:25.660Z,2.46
2023-03-05T18:38:58.792Z,2.41
2023-03-05T18:41:31.494Z,2.43
2023-03-05T18:44:05.013Z,2.40
2023-03-05T18:46:38.060Z,2.37
2023-03-05T18:49:10.449Z,2.37
2023-03-05T18:51:44.046Z,2.35
2023-03-05T18:54:17.220Z,2.32
2023-03-05T18:56:50.246Z,2.28
2023-03-05T18:59:22.730Z,2.21
2023-03-05T19:01:55.007Z,2.15
2023-03-05T19:04:27.747Z,2.05
2023-03-05T19:07:00.186Z,1.94
2023-03-05T19:09:34.924Z,1.85
2023-03-05T19:12:08.551Z,1.79
2023-03-05T19:14:42.653Z,1.77
2023-03-05T19:17:15.815Z,1.77
2023-03-05T19:19:54.433Z,1.76
2023-03-05T19:22:28.761Z,1.71
2023-03-05T19:25:01.903Z,1.71
2023-03-05T19:27:35.108Z,1.69
2023-03-05T19:30:09.416Z,1.68
2023-03-05T19:32:41.860Z,1.69
2023-03-05T19:35:16.829Z,1.65
2023-03-05T19:37:49.301Z,1.57
2023-03-05T19:40:21.969Z,1.49
2023-03-05T19:42:54.594Z,1.45
2023-03-05T19:45:27.596Z,1.40
2023-03-05T19:47:59.939Z,1.34
2023-03-05T19:50:34.441Z,1.31
2023-03-05T19:53:06.676Z,1.27
2023-03-05T19:55:41.289Z,1.24
2023-03-05T19:58:13.796Z,1.23
2023-03-05T20:00:46.616Z,1.21
2023-03-05T20:03:19.525Z,1.24
2023-03-05T20:05:52.243Z,1.20
2023-03-05T20:08:24.857Z,1.20
2023-03-05T20:10:58.617Z,1.20
2023-03-05T20:13:31.922Z,1.20
2023-03-05T20:16:05.293Z,1.15
2023-03-05T20:18:37.815Z,1.15
2023-03-05T20:21:10.374Z,1.12
2023-03-05T20:23:43.898Z,1.11
2023-03-05T20:26:17.841Z,1.10
2023-03-05T20:28:51.154Z,1.06
2023-03-05T20:31:25.759Z,1.02
2023-03-05T20:33:58.886Z,1.00
2023-03-05T20:36:31.492Z,0.98
2023-03-05T20:39:06.021Z,0.98
2023-03-05T20:41:40.101Z,1.00
2023-03-05T20:44:14.253Z,1.00
2023-03-05T20:46:48.305Z,0.99
2023-03-05T20:49:21.528Z,0.97
2023-03-05T20:51:54.333Z,0.96
2023-03-05T20:54:28.261Z,0.90
2023-03-05T20:57:00.754Z,0.87
2023-03-05T20:59:33.355Z,0.81
2023-03-05T21:02:05.936Z,0.74
2023-03-05T21:04:39.137Z,0.69
2023-03-05T21:07:11.929Z,0.65
2023-03-05T21:09:44.514Z,0.62
2023-03-05T21:12:17.358Z,0.58
2023-03-05T21:14:49.927Z,0.56
2023-03-05T21:17:23.142Z,0.53
2023-03-05T21:19:56.022Z,0.48
2023-03-05T21:22:28.400Z,0.44
2023-03-05T21:25:04.845Z,0.49
2023-03-05T21:27:38.100Z,0.50
2023-03-05T21:30:33.884Z,0.47
2023-03-05T21:33:10.037Z,0.44
2023-03-05T21:35:43.568Z,0.43
2023-03-05T21:38:17.130Z,0.41
2023-03-05T21:40:51.459Z,0.42
2023-03-05T21:43:25.342Z,0.41
2023-03-05T21:45:58.067Z,0.41
2023-03-05T21:48:30.544Z,0.43
2023-03-05T21:51:08.742Z,0.42
2023-03-05T21:53:41.270Z,0.44
2023-03-05T21:56:17.763Z,0.46
2023-03-05T21:58:50.222Z,0.49
2023-03-05T22:01:22.601Z,0.49
2023-03-05T22:03:55.051Z,0.50
2023-03-05T22:06:29.331Z,0.52
2023-03-05T22:09:01.696Z,0.55
2023-03-05T22:11:34.450Z,0.61
2023-03-05T22:14:06.911Z,0.65
2023-03-05T22:16:39.780Z,0.66
2023-03-05T22:19:12.193Z,0.65
2023-03-05T22:21:45.010Z,0.70
2023-03-05T22:24:17.362Z,0.72
2023-03-05T22:26:49.977Z,0.73
2023-03-05T22:29:22.430Z,0.74
2023-03-05T22:31:56.213Z,0.74
2023-03-05T22:34:29.152Z,0.78
2023-03-05T22:37:02.279Z,0.82
2023-03-05T22:39:35.067Z,0.85
2023-03-05T22:42:08.179Z,0.86
2023-03-05T22:44:40.852Z,0.86
2023-03-05T22:47:13.632Z,0.86
2023-03-05T22:49:46.998Z,0.86
2023-03-05T22:52:19.407Z,0.88
2023-03-05T22:54:53.862Z,0.89
2023-03-05T22:57:26.431Z,0.92
2023-03-05T22:59:59.390Z,0.95
2023-03-05T23:02:32.214Z,0.96
2023-03-05T23:05:05.760Z,0.95
2023-03-05T23:07:40.913Z,0.91
2023-03-05T23:10:18.814Z,0.91
2023-03-05T23:12:53.836Z,0.90
2023-03-05T23:15:30.838Z,0.94
2023-03-05T23:18:04.509Z,0.95
2023-03-05T23:20:38.132Z,0.96
2023-03-05T23:23:10.610Z,0.96
2023-03-05T23:25:42.886Z,0.95
2023-03-05T23:28:15.631Z,0.96
2023-03-05T23:30:49.962Z,0.99
2023-03-05T23:33:24.013Z,1.02
2023-03-05T23:35:59.591Z,1.06
2023-03-05T23:38:33.447Z,1.10
2023-03-05T23:41:09.608Z,1.12
2023-03-05T23:43:42.621Z,1.18
2023-03-05T23:46:16.060Z,1.21
2023-03-05T23:48:48.712Z,1.22
2023-03-05T23:51:21.215Z,1.24
2023-03-05T23:53:53.605Z,1.28
2023-03-05T23:56:25.955Z,1.30
2023-03-05T23:58:59.882Z,1.34
